createdAt,value
2022-08-28T00:01:48.946Z,95.53
2022-08-28T00:04:18.435Z,88.60
2022-08-28T00:06:48.588Z,91.68
2022-08-28T00:09:17.982Z,104.63
2022-08-28T00:11:47.201Z,95.88
2022-08-28T00:14:19.295Z,91.03
2022-08-28T00:16:50.700Z,101.00
2022-08-28T00:19:22.892Z,97.07
2022-08-28T00:21:53.021Z,96.65
2022-08-28T00:24:22.285Z,101.43
2022-08-28T00:27:08.963Z,100.95
2022-08-28T00:29:38.590Z,90.00
2022-08-28T00:32:09.663Z,93.25
2022-08-28T00:34:38.948Z,88.07
2022-08-28T00:37:08.476Z,95.15
2022-08-28T00:39:37.764Z,89.60
2022-08-28T00:42:07.637Z,95.03
2022-08-28T00:44:38.431Z,84.63
2022-08-28T00:47:10.172Z,98.63
2022-08-28T00:49:48.835Z,95.97
2022-08-28T00:52:18.867Z,88.07
2022-08-28T00:54:58.796Z,89.90
2022-08-28T00:57:33.101Z,94.55
2022-08-28T01:00:02.521Z,93.93
2022-08-28T01:02:33.281Z,91.90
2022-08-28T01:05:02.869Z,86.38
2022-08-28T01:07:32.176Z,101.00
2022-08-28T01:10:01.520Z,92.22
2022-08-28T01:12:34.037Z,97.10
2022-08-28T01:17:44.101Z,99.63
2022-08-28T01:20:19.389Z,101.68
2022-08-28T01:22:59.299Z,92.82
2022-08-28T01:25:34.877Z,94.97
2022-08-28T01:28:14.838Z,99.03
2022-08-28T01:30:48.002Z,91.30
2022-08-28T01:33:17.554Z,100.05
2022-08-28T01:35:48.986Z,94.22
2022-08-28T01:38:20.243Z,101.28
2022-08-28T01:40:57.433Z,102.13
2022-08-28T01:43:28.985Z,96.10
2022-08-28T01:46:02.388Z,95.97
2022-08-28T01:48:37.176Z,84.90
2022-08-28T01:51:07.712Z,95.53
2022-08-28T01:53:37.254Z,97.75
2022-08-28T01:56:16.110Z,95.63
2022-08-28T01:58:48.107Z,90.82
2022-08-28T02:01:20.603Z,105.10
2022-08-28T02:03:53.076Z,92.20
2022-08-28T02:08:55.719Z,94.97
2022-08-28T02:11:26.967Z,94.47
2022-08-28T02:13:56.447Z,114.85
2022-08-28T02:16:26.079Z,108.10
2022-08-28T02:18:55.342Z,113.75
2022-08-28T02:21:25.278Z,109.38
2022-08-28T02:23:55.219Z,111.15
2022-08-28T02:26:26.109Z,124.32
2022-08-28T02:28:55.251Z,98.22
2022-08-28T02:31:24.394Z,107.65
2022-08-28T02:33:53.622Z,114.13
2022-08-28T02:36:25.892Z,106.80
2022-08-28T02:38:57.741Z,103.63
2022-08-28T02:41:28.803Z,100.90
2022-08-28T02:43:57.944Z,104.57
2022-08-28T02:46:27.528Z,118.57
2022-08-28T02:48:56.927Z,113.03
2022-08-28T02:51:26.298Z,98.72
2022-08-28T02:53:55.503Z,113.22
2022-08-28T02:56:24.720Z,119.38
2022-08-28T02:58:56.600Z,110.00
2022-08-28T03:01:26.101Z,116.82
2022-08-28T03:03:55.512Z,115.03
2022-08-28T03:06:24.650Z,115.15
2022-08-28T03:08:53.925Z,107.97
2022-08-28T03:11:23.477Z,128.98
2022-08-28T03:13:54.092Z,124.15
2022-08-28T03:16:25.215Z,124.22
2022-08-28T03:18:54.450Z,101.63
2022-08-28T03:21:23.868Z,116.97
2022-08-28T03:23:52.051Z,113.15
2022-08-28T03:26:24.114Z,120.50
2022-08-28T03:28:57.696Z,118.33
2022-08-28T03:31:33.857Z,123.22
2022-08-28T03:34:03.476Z,127.82
2022-08-28T03:36:33.327Z,117.35
2022-08-28T03:39:06.248Z,123.45
2022-08-28T03:41:37.046Z,123.65
2022-08-28T03:44:07.956Z,119.00
2022-08-28T03:46:37.798Z,100.18
2022-08-28T03:49:07.357Z,129.52
2022-08-28T03:51:36.952Z,128.35
2022-08-28T03:54:06.958Z,124.18
2022-08-28T03:56:36.123Z,114.30
2022-08-28T03:59:08.161Z,120.97
2022-08-28T04:01:38.382Z,121.30
2022-08-28T04:04:07.818Z,127.10
2022-08-28T04:06:37.182Z,121.00
2022-08-28T04:09:08.046Z,124.22
2022-08-28T04:11:42.771Z,125.05
2022-08-28T04:14:13.786Z,122.68
2022-08-28T04:16:43.425Z,123.43
2022-08-28T04:19:12.766Z,125.75
2022-08-28T04:21:41.983Z,131.73
2022-08-28T04:24:13.358Z,122.32
2022-08-28T04:26:42.909Z,124.78
2022-08-28T04:29:13.799Z,127.20
2022-08-28T04:31:43.681Z,127.72
2022-08-28T04:34:13.443Z,119.90
2022-08-28T04:36:42.701Z,137.77
2022-08-28T04:39:11.836Z,121.63
2022-08-28T04:41:41.422Z,125.18
2022-08-28T04:44:12.094Z,118.30
2022-08-28T04:46:44.370Z,118.55
2022-08-28T04:49:17.934Z,120.95
2022-08-28T04:51:50.283Z,127.18
2022-08-28T04:54:19.501Z,112.97
2022-08-28T04:56:48.659Z,129.52
2022-08-28T04:59:19.461Z,128.00
2022-08-28T05:01:48.732Z,125.18
2022-08-28T05:04:19.815Z,123.68
2022-08-28T05:06:49.581Z,133.50
2022-08-28T05:09:21.436Z,126.28
2022-08-28T05:11:53.555Z,132.17
2022-08-28T05:14:24.290Z,129.80
2022-08-28T05:16:55.656Z,120.72
2022-08-28T05:19:26.414Z,126.90
2022-08-28T05:21:56.072Z,120.30
2022-08-28T05:24:25.441Z,138.07
2022-08-28T05:26:54.655Z,125.15
2022-08-28T05:29:25.267Z,110.40
2022-08-28T05:31:55.365Z,125.57
2022-08-28T05:34:25.002Z,139.98
2022-08-28T05:36:54.244Z,120.68
2022-08-28T05:39:23.437Z,121.97
2022-08-28T05:41:55.767Z,116.90
2022-08-28T05:44:26.524Z,136.75
2022-08-28T05:46:57.144Z,124.18
2022-08-28T05:49:28.295Z,147.40
2022-08-28T05:51:57.644Z,127.05
2022-08-28T05:54:29.052Z,134.73
2022-08-28T05:56:58.368Z,131.18
2022-08-28T05:59:28.929Z,126.53
2022-08-28T06:02:02.227Z,132.85
2022-08-28T06:04:33.548Z,134.32
2022-08-28T06:07:02.765Z,138.50
2022-08-28T06:09:32.550Z,126.82
2022-08-28T06:12:03.138Z,127.65
2022-08-28T06:14:34.503Z,131.93
2022-08-28T06:17:04.998Z,129.23
2022-08-28T06:19:41.057Z,134.60
2022-08-28T06:22:14.851Z,129.10
2022-08-28T06:24:44.033Z,138.32
2022-08-28T06:27:13.199Z,127.28
2022-08-28T06:29:44.769Z,117.82
2022-08-28T06:32:14.309Z,122.55
2022-08-28T06:34:43.625Z,126.40
2022-08-28T06:37:13.049Z,139.88
2022-08-28T06:39:42.471Z,139.18
2022-08-28T06:42:11.581Z,125.45
2022-08-28T06:44:42.191Z,139.40
2022-08-28T06:47:11.690Z,124.97
2022-08-28T06:49:41.556Z,140.13
2022-08-28T06:52:10.739Z,135.23
2022-08-28T06:54:39.930Z,127.80
2022-08-28T06:57:11.116Z,133.45
2022-08-28T06:59:40.431Z,138.10
2022-08-28T07:02:11.176Z,130.73
2022-08-28T07:04:40.488Z,132.40
2022-08-28T07:07:10.629Z,130.30
2022-08-28T07:09:59.800Z,125.07
2022-08-28T07:12:28.964Z,127.97
2022-08-28T07:14:58.314Z,125.20
2022-08-28T07:17:28.860Z,118.90
2022-08-28T07:19:58.475Z,122.20
2022-08-28T07:22:27.882Z,115.05
2022-08-28T07:24:58.282Z,117.03
2022-08-28T07:27:27.693Z,112.22
2022-08-28T07:29:56.912Z,102.72
2022-08-28T07:32:26.573Z,108.47
2022-08-28T07:34:57.262Z,107.28
2022-08-28T07:37:27.595Z,106.97
2022-08-28T07:39:56.864Z,113.72
2022-08-28T07:42:43.488Z,100.07
2022-08-28T07:45:13.067Z,102.80
2022-08-28T07:47:42.334Z,99.38
2022-08-28T07:50:13.274Z,99.30
2022-08-28T07:52:43.009Z,102.30
2022-08-28T07:55:12.156Z,94.47
2022-08-28T07:57:43.288Z,107.53
2022-08-28T08:00:14.495Z,84.82
2022-08-28T08:02:43.707Z,94.50
2022-08-28T08:05:14.540Z,108.88
2022-08-28T08:07:43.972Z,83.97
2022-08-28T08:10:19.889Z,92.70
2022-08-28T08:12:50.038Z,92.72
2022-08-28T08:15:21.906Z,104.40
2022-08-28T08:17:51.933Z,85.60
2022-08-28T08:20:22.678Z,73.07
2022-08-28T08:22:52.086Z,94.28
2022-08-28T08:25:21.473Z,81.72
2022-08-28T08:27:55.116Z,76.45
2022-08-28T08:30:24.281Z,82.18
2022-08-28T08:32:53.678Z,81.28
2022-08-28T08:35:25.326Z,82.10
2022-08-28T08:37:54.460Z,80.43
2022-08-28T08:40:23.704Z,85.97
2022-08-28T08:42:57.220Z,86.97
2022-08-28T08:45:29.527Z,88.10
2022-08-28T08:47:58.858Z,86.00
2022-08-28T08:50:32.642Z,82.68
2022-08-28T08:53:24.426Z,83.70
2022-08-28T08:55:55.810Z,78.95
2022-08-28T08:58:32.889Z,83.93
2022-08-28T09:01:10.366Z,84.80
2022-08-28T09:03:56.786Z,83.40
2022-08-28T09:06:41.134Z,82.45
2022-08-28T09:09:19.769Z,88.85
2022-08-28T09:11:56.454Z,85.97
2022-08-28T09:14:38.306Z,87.55
2022-08-28T09:17:09.677Z,87.63
2022-08-28T09:19:38.993Z,89.32
2022-08-28T09:22:09.813Z,82.75
2022-08-28T09:24:42.294Z,79.25
2022-08-28T09:32:35.138Z,86.05
2022-08-28T09:35:14.163Z,72.22
2022-08-28T09:37:45.611Z,73.43
2022-08-28T09:40:26.236Z,72.93
2022-08-28T09:43:30.641Z,58.97
2022-08-28T09:46:03.558Z,48.60
2022-08-28T09:48:37.080Z,73.07
2022-08-28T09:51:08.557Z,49.70
2022-08-28T09:53:54.905Z,64.38
2022-08-28T09:56:29.672Z,58.95
2022-08-28T09:59:03.646Z,67.47
2022-08-28T10:01:49.069Z,51.95
2022-08-28T10:04:44.650Z,47.67
2022-08-28T10:07:24.558Z,48.30
2022-08-28T10:10:11.050Z,51.97
2022-08-28T10:12:50.835Z,54.30
2022-08-28T10:15:27.702Z,62.25
2022-08-28T10:18:34.141Z,50.03
2022-08-28T10:21:14.910Z,67.20
2022-08-28T10:24:05.409Z,57.90
2022-08-28T10:26:45.861Z,63.97
2022-08-28T10:29:32.687Z,57.90
2022-08-28T10:32:24.845Z,53.92
2022-08-28T10:35:05.032Z,57.47
2022-08-28T10:37:52.142Z,58.58
2022-08-28T10:40:29.630Z,61.25
2022-08-28T10:43:06.074Z,62.78
2022-08-28T10:45:36.237Z,77.15
2022-08-28T10:48:12.272Z,68.68
2022-08-28T10:50:47.179Z,65.13
2022-08-28T10:53:21.857Z,66.93
2022-08-28T10:55:57.723Z,69.38
2022-08-28T10:58:30.135Z,71.10
2022-08-28T11:03:41.907Z,78.63
2022-08-28T11:06:22.603Z,76.60
2022-08-28T11:08:56.909Z,72.55
2022-08-28T11:11:45.349Z,73.68
2022-08-28T11:14:29.991Z,83.65
2022-08-28T11:17:03.445Z,82.72
2022-08-28T11:20:01.992Z,80.97
2022-08-28T11:22:38.615Z,81.07
2022-08-28T11:25:19.715Z,84.07
2022-08-28T11:28:19.850Z,87.13
2022-08-28T11:31:16.359Z,97.53
2022-08-28T11:34:01.274Z,102.60
2022-08-28T11:37:03.629Z,82.72
2022-08-28T11:39:33.137Z,80.80
2022-08-28T11:42:37.406Z,96.78
2022-08-28T11:45:08.123Z,85.07
2022-08-28T11:47:56.608Z,91.05
2022-08-28T11:50:32.347Z,82.13
2022-08-28T11:53:39.778Z,82.03
2022-08-28T11:56:37.213Z,80.75
2022-08-28T11:59:37.302Z,87.60
2022-08-28T12:02:50.751Z,77.80
2022-08-28T12:05:54.380Z,80.70
2022-08-28T12:09:10.171Z,78.22
2022-08-28T12:12:02.819Z,74.63
2022-08-28T12:15:09.404Z,80.20
2022-08-28T12:17:53.724Z,72.47
2022-08-28T12:21:02.246Z,75.75
2022-08-28T12:23:40.039Z,70.00
2022-08-28T12:26:23.990Z,67.20
2022-08-28T12:28:58.277Z,70.70
2022-08-28T12:32:18.914Z,74.20
2022-08-28T12:35:19.437Z,79.15
2022-08-28T12:38:03.798Z,72.07
2022-08-28T12:40:50.551Z,74.00
2022-08-28T12:43:34.614Z,78.15
2022-08-28T12:46:19.131Z,70.10
2022-08-28T12:48:52.798Z,68.78
2022-08-28T12:51:24.691Z,69.35
2022-08-28T12:53:58.502Z,65.68
2022-08-28T12:56:32.653Z,71.82
2022-08-28T12:59:27.696Z,67.20
2022-08-28T13:02:04.090Z,68.43
2022-08-28T13:04:37.565Z,69.38
2022-08-28T13:07:12.494Z,70.18
2022-08-28T13:09:51.588Z,76.43
2022-08-28T13:12:37.845Z,76.03
2022-08-28T13:15:14.561Z,78.47
2022-08-28T13:17:55.041Z,78.88
2022-08-28T13:20:30.619Z,83.68
2022-08-28T13:23:01.690Z,91.78
2022-08-28T13:25:36.962Z,91.15
2022-08-28T13:28:17.827Z,76.72
2022-08-28T13:30:59.248Z,82.28
2022-08-28T13:33:28.862Z,85.00
2022-08-28T13:35:58.053Z,84.72
2022-08-28T13:38:27.450Z,84.03
2022-08-28T13:41:03.810Z,80.97
2022-08-28T13:43:47.468Z,85.32
2022-08-28T13:46:18.328Z,133.20
2022-08-28T13:48:47.773Z,89.57
2022-08-28T13:51:20.721Z,77.28
2022-08-28T13:53:50.544Z,88.10
2022-08-28T13:56:23.181Z,87.32
2022-08-28T13:58:57.818Z,88.10
2022-08-28T14:01:48.486Z,80.82
2022-08-28T14:04:17.094Z,83.95
2022-08-28T14:06:46.301Z,77.18
2022-08-28T14:09:17.736Z,77.28
2022-08-28T14:11:49.925Z,74.93
2022-08-28T14:14:20.066Z,83.40
2022-08-28T14:16:52.650Z,82.85
2022-08-28T14:19:22.650Z,72.68
2022-08-28T14:21:51.892Z,71.60
2022-08-28T14:24:21.318Z,75.32
2022-08-28T14:26:55.658Z,80.45
2022-08-28T14:29:24.913Z,72.78
2022-08-28T14:31:54.108Z,75.18
2022-08-28T14:34:24.517Z,67.57
2022-08-28T14:36:56.160Z,78.75
2022-08-28T14:39:27.935Z,74.20
2022-08-28T14:41:59.131Z,64.55
2022-08-28T14:44:28.862Z,71.72
2022-08-28T14:46:58.190Z,68.82
2022-08-28T14:49:28.992Z,74.57
2022-08-28T14:51:58.380Z,76.53
2022-08-28T14:54:27.855Z,74.07
2022-08-28T14:56:58.633Z,78.03
2022-08-28T14:59:30.532Z,69.22
2022-08-28T15:02:02.400Z,70.47
2022-08-28T15:04:37.816Z,69.72
2022-08-28T15:07:13.153Z,64.97
2022-08-28T15:09:44.111Z,70.90
2022-08-28T15:12:14.873Z,69.95
2022-08-28T15:14:54.947Z,65.63
2022-08-28T15:17:33.443Z,60.53
2022-08-28T15:20:05.650Z,69.78
2022-08-28T15:22:34.981Z,63.95
2022-08-28T15:25:06.913Z,69.25
2022-08-28T15:27:37.984Z,73.28
2022-08-28T15:30:08.635Z,70.97
2022-08-28T15:32:37.973Z,63.13
2022-08-28T15:35:08.597Z,91.20
2022-08-28T15:37:37.852Z,69.20
2022-08-28T15:40:26.425Z,81.28
2022-08-28T15:42:57.780Z,69.90
2022-08-28T15:45:27.530Z,70.05
2022-08-28T15:47:58.553Z,70.22
2022-08-28T15:50:27.805Z,70.03
2022-08-28T15:52:57.085Z,76.65
2022-08-28T15:55:28.597Z,80.45
2022-08-28T15:57:59.279Z,76.10
2022-08-28T16:00:29.088Z,76.20
2022-08-28T16:03:01.000Z,79.18
2022-08-28T16:05:40.660Z,80.75
2022-08-28T16:08:11.641Z,81.28
2022-08-28T16:10:41.187Z,77.55
2022-08-28T16:13:11.890Z,91.25
2022-08-28T16:15:41.310Z,74.43
2022-08-28T16:18:10.723Z,78.25
2022-08-28T16:20:41.097Z,82.53
2022-08-28T16:23:11.998Z,76.03
2022-08-28T16:25:42.010Z,72.53
2022-08-28T16:28:12.787Z,81.00
2022-08-28T16:30:43.875Z,73.85
2022-08-28T16:33:14.049Z,73.05
2022-08-28T16:35:49.511Z,82.53
2022-08-28T16:38:25.175Z,85.38
2022-08-28T16:40:54.442Z,82.25
2022-08-28T16:43:25.695Z,92.00
2022-08-28T16:45:54.914Z,86.85
2022-08-28T16:48:24.076Z,87.47
2022-08-28T16:50:53.350Z,81.70
2022-08-28T16:53:26.997Z,84.40
2022-08-28T16:55:56.611Z,88.15
2022-08-28T16:58:27.940Z,90.03
2022-08-28T17:00:57.387Z,93.35
2022-08-28T17:03:26.895Z,83.50
2022-08-28T17:05:58.210Z,93.65
2022-08-28T17:08:27.710Z,84.88
2022-08-28T17:10:58.712Z,80.93
2022-08-28T17:13:29.384Z,75.05
2022-08-28T17:15:58.752Z,78.00
2022-08-28T17:18:27.998Z,78.63
2022-08-28T17:21:14.838Z,75.07
2022-08-28T17:23:44.275Z,71.53
2022-08-28T17:26:14.570Z,79.45
2022-08-28T17:28:46.498Z,83.53
2022-08-28T17:31:16.005Z,73.18
2022-08-28T17:33:47.143Z,79.38
2022-08-28T17:36:32.386Z,74.68
2022-08-28T17:39:03.189Z,77.70
2022-08-28T17:41:33.614Z,83.80
2022-08-28T17:44:05.676Z,74.30
2022-08-28T17:46:37.962Z,82.78
2022-08-28T17:49:09.225Z,81.55
2022-08-28T17:51:42.369Z,83.90
2022-08-28T17:54:13.997Z,84.13
2022-08-28T17:56:43.900Z,80.07
2022-08-28T17:59:15.366Z,83.65
2022-08-28T18:01:46.585Z,77.55
2022-08-28T18:04:23.269Z,83.85
2022-08-28T18:06:54.955Z,82.93
2022-08-28T18:09:25.352Z,73.10
2022-08-28T18:11:55.085Z,78.57
2022-08-28T18:14:26.493Z,79.60
2022-08-28T18:16:56.691Z,81.13
2022-08-28T18:19:26.198Z,80.57
2022-08-28T18:21:55.902Z,84.40
2022-08-28T18:24:26.029Z,82.25
2022-08-28T18:26:57.370Z,73.10
2022-08-28T18:29:28.114Z,76.20
2022-08-28T18:31:57.548Z,85.75
2022-08-28T18:34:26.677Z,76.43
2022-08-28T18:36:55.848Z,91.28
2022-08-28T18:39:29.665Z,88.38
2022-08-28T18:41:59.893Z,87.80
2022-08-28T18:44:32.025Z,78.63
2022-08-28T18:47:01.411Z,79.85
2022-08-28T18:49:30.683Z,86.57
2022-08-28T18:51:59.907Z,107.30
2022-08-28T18:54:29.667Z,92.78
2022-08-28T18:57:04.194Z,89.95
2022-08-28T18:59:35.427Z,114.53
2022-08-28T19:02:04.752Z,99.90
2022-08-28T19:04:33.883Z,115.85
2022-08-28T19:07:03.203Z,97.55
2022-08-28T19:09:34.884Z,113.45
2022-08-28T19:12:05.921Z,91.43
2022-08-28T19:14:37.295Z,106.20
2022-08-28T19:17:06.725Z,98.22
2022-08-28T19:19:36.080Z,112.85
2022-08-28T19:22:06.660Z,101.72
2022-08-28T19:24:35.881Z,104.18
2022-08-28T19:27:05.273Z,118.75
2022-08-28T19:29:35.925Z,104.43
2022-08-28T19:32:06.345Z,129.40
2022-08-28T19:34:36.148Z,113.80
2022-08-28T19:37:06.433Z,115.22
2022-08-28T19:39:35.761Z,118.05
2022-08-28T19:42:05.192Z,113.65
2022-08-28T19:44:39.429Z,104.00
2022-08-28T19:47:09.087Z,115.07
2022-08-28T19:49:41.751Z,109.88
2022-08-28T19:52:11.234Z,102.75
2022-08-28T19:54:42.447Z,117.25
2022-08-28T19:57:11.813Z,119.20
2022-08-28T19:59:42.750Z,107.75
2022-08-28T20:02:14.538Z,125.72
2022-08-28T20:04:43.915Z,123.18
2022-08-28T20:07:13.312Z,138.52
2022-08-28T20:09:42.691Z,135.30
2022-08-28T20:12:11.999Z,132.32
2022-08-28T20:14:42.749Z,112.82
2022-08-28T20:17:15.313Z,124.20
2022-08-28T20:19:45.578Z,137.10
2022-08-28T20:22:15.370Z,118.18
2022-08-28T20:24:45.308Z,133.40
2022-08-28T20:27:14.644Z,133.38
2022-08-28T20:29:45.291Z,123.03
2022-08-28T20:32:14.550Z,131.65
2022-08-28T20:34:44.605Z,137.10
2022-08-28T20:37:17.639Z,126.70
2022-08-28T20:42:16.693Z,132.75
2022-08-28T20:44:47.654Z,144.02
2022-08-28T20:47:17.079Z,143.68
2022-08-28T20:49:47.710Z,137.63
2022-08-28T20:52:17.039Z,143.60
2022-08-28T20:54:46.315Z,143.38
2022-08-28T20:57:21.183Z,134.27
2022-08-28T20:59:54.094Z,129.32
2022-08-28T21:02:26.289Z,135.80
2022-08-28T21:04:56.737Z,135.95
2022-08-28T21:07:27.151Z,155.63
2022-08-28T21:10:05.456Z,144.98
2022-08-28T21:12:36.380Z,129.25
2022-08-28T21:15:09.705Z,131.65
2022-08-28T21:17:39.050Z,158.23
2022-08-28T21:20:12.803Z,127.72
2022-08-28T21:22:42.786Z,136.40
2022-08-28T21:25:13.548Z,133.40
2022-08-28T21:27:44.220Z,129.35
2022-08-28T21:30:19.194Z,132.65
2022-08-28T21:32:50.036Z,132.70
2022-08-28T21:35:21.002Z,136.13
2022-08-28T21:37:51.206Z,133.05
2022-08-28T21:40:20.733Z,135.30
2022-08-28T21:42:50.055Z,131.13
2022-08-28T21:45:22.531Z,122.32
2022-08-28T21:47:51.850Z,145.23
2022-08-28T21:50:21.204Z,149.32
2022-08-28T21:52:50.338Z,139.20
2022-08-28T21:55:19.508Z,140.13
2022-08-28T21:57:48.998Z,143.93
2022-08-28T22:00:23.280Z,131.63
2022-08-28T22:02:52.694Z,124.80
2022-08-28T22:05:22.127Z,145.23
2022-08-28T22:07:51.369Z,137.05
2022-08-28T22:10:20.570Z,132.68
2022-08-28T22:12:49.829Z,140.40
2022-08-28T22:15:20.533Z,129.10
2022-08-28T22:17:49.737Z,131.27
2022-08-28T22:20:19.298Z,144.50
2022-08-28T22:23:06.141Z,135.40
2022-08-28T22:25:40.904Z,129.10
2022-08-28T22:28:11.821Z,134.48
2022-08-28T22:30:42.516Z,128.00
2022-08-28T22:33:12.201Z,142.30
2022-08-28T22:35:41.395Z,144.93
2022-08-28T22:38:11.233Z,150.40
2022-08-28T22:40:40.559Z,140.55
2022-08-28T22:43:09.923Z,121.18
2022-08-28T22:45:39.616Z,133.45
2022-08-28T22:48:11.647Z,129.82
2022-08-28T22:50:42.353Z,125.20
2022-08-28T22:53:12.819Z,136.85
2022-08-28T22:55:43.892Z,137.43
2022-08-28T22:58:16.934Z,138.38
2022-08-28T23:00:46.407Z,142.15
2022-08-28T23:03:17.254Z,135.25
2022-08-28T23:05:46.822Z,133.65
2022-08-28T23:08:16.109Z,140.20
2022-08-28T23:10:58.413Z,121.28
2022-08-28T23:13:28.877Z,126.78
2022-08-28T23:15:58.585Z,130.82
2022-08-28T23:18:41.602Z,129.25
2022-08-28T23:21:20.582Z,147.93
2022-08-28T23:23:49.854Z,119.85
2022-08-28T23:26:20.326Z,137.57
2022-08-28T23:28:49.905Z,121.45
2022-08-28T23:31:19.313Z,127.85
2022-08-28T23:33:50.249Z,129.68
2022-08-28T23:36:19.591Z,125.50
2022-08-28T23:38:48.811Z,129.23
2022-08-28T23:41:18.511Z,125.25
2022-08-28T23:43:53.416Z,119.50
2022-08-28T23:46:26.232Z,119.47
2022-08-28T23:48:57.070Z,136.60
2022-08-28T23:51:26.608Z,134.68
2022-08-28T23:53:58.913Z,127.65
2022-08-28T23:56:28.391Z,130.60
2022-08-28T23:58:57.627Z,121.95
